createdAt,value
2018-02-09T00:01:53.320Z,-4.30
2018-02-09T00:04:20.907Z,-4.30
2018-02-09T00:06:48.949Z,-4.40
2018-02-09T00:09:17.681Z,-4.30
2018-02-09T00:11:45.690Z,-4.30
2018-02-09T00:14:13.971Z,-4.30
2018-02-09T00:16:41.800Z,-4.30
2018-02-09T00:19:10.028Z,-4.30
2018-02-09T00:21:38.282Z,-4.30
2018-02-09T00:24:06.657Z,-4.20
2018-02-09T00:26:35.589Z,-4.20
2018-02-09T00:29:03.528Z,-4.20
2018-02-09T00:31:32.031Z,-4.10
2018-02-09T00:34:00.776Z,-4.10
2018-02-09T00:36:28.957Z,-4.20
2018-02-09T00:38:57.065Z,-4.10
2018-02-09T00:41:25.258Z,-4.10
2018-02-09T00:43:53.213Z,-4.10
2018-02-09T00:46:21.073Z,-4.10
2018-02-09T00:48:49.028Z,-4.10
2018-02-09T00:51:16.735Z,-4.10
2018-02-09T00:53:45.298Z,-4.20
2018-02-09T00:56:12.875Z,-4.20
2018-02-09T00:58:40.416Z,-4.30
2018-02-09T01:01:07.981Z,-4.30
2018-02-09T01:03:35.649Z,-4.40
2018-02-09T01:06:03.292Z,-4.50
2018-02-09T01:08:30.870Z,-4.50
2018-02-09T01:10:58.404Z,-4.50
2018-02-09T01:13:25.991Z,-4.50
2018-02-09T01:15:53.502Z,-4.50
2018-02-09T01:18:22.135Z,-4.40
2018-02-09T01:20:49.688Z,-4.40
2018-02-09T01:23:17.458Z,-4.40
2018-02-09T01:25:45.439Z,-4.40
2018-02-09T01:28:12.937Z,-4.40
2018-02-09T01:30:40.446Z,-4.50
2018-02-09T01:33:07.946Z,-4.50
2018-02-09T01:35:35.463Z,-4.40
2018-02-09T01:38:02.978Z,-4.40
2018-02-09T01:40:30.506Z,-4.50
2018-02-09T01:42:58.030Z,-4.50
2018-02-09T01:45:26.447Z,-4.50
2018-02-09T01:47:53.959Z,-4.50
2018-02-09T01:50:21.494Z,-4.50
2018-02-09T01:52:50.000Z,-4.50
2018-02-09T01:55:18.292Z,-4.50
2018-02-09T01:57:45.852Z,-4.60
2018-02-09T02:00:13.408Z,-4.50
2018-02-09T02:02:40.970Z,-4.60
2018-02-09T02:05:08.737Z,-4.60
2018-02-09T02:07:36.307Z,-4.50
2018-02-09T02:10:03.866Z,-4.50
2018-02-09T02:12:31.366Z,-4.60
2018-02-09T02:14:58.893Z,-4.60
2018-02-09T02:17:26.422Z,-4.60
2018-02-09T02:19:54.735Z,-4.70
2018-02-09T02:22:22.370Z,-4.80
2018-02-09T02:24:49.887Z,-4.70
2018-02-09T02:27:17.401Z,-4.80
2018-02-09T02:29:44.926Z,-4.80
2018-02-09T02:32:13.850Z,-4.70
2018-02-09T02:34:42.032Z,-4.80
2018-02-09T02:37:09.569Z,-4.70
2018-02-09T02:39:37.880Z,-4.80
2018-02-09T02:42:05.414Z,-4.80
2018-02-09T02:44:32.923Z,-4.80
2018-02-09T02:47:00.438Z,-4.80
2018-02-09T02:49:28.920Z,-4.80
2018-02-09T02:51:57.399Z,-4.80
2018-02-09T02:54:24.915Z,-4.80
2018-02-09T02:56:52.515Z,-4.90
2018-02-09T02:59:21.162Z,-4.80
2018-02-09T03:01:49.480Z,-4.90
2018-02-09T03:04:18.185Z,-4.90
2018-02-09T03:06:45.710Z,-4.90
2018-02-09T03:09:13.988Z,-5.00
2018-02-09T03:11:42.315Z,-5.00
2018-02-09T03:14:09.836Z,-5.00
2018-02-09T03:16:37.409Z,-5.00
2018-02-09T03:19:05.166Z,-4.90
2018-02-09T03:21:32.732Z,-5.00
2018-02-09T03:24:00.295Z,-4.90
2018-02-09T03:26:27.825Z,-4.90
2018-02-09T03:28:56.845Z,-4.90
2018-02-09T03:31:24.765Z,-4.90
2018-02-09T03:33:52.276Z,-5.00
2018-02-09T03:36:22.696Z,-4.90
2018-02-09T03:38:50.226Z,-4.80
2018-02-09T03:41:18.076Z,-4.90
2018-02-09T03:43:46.609Z,-4.80
2018-02-09T03:46:14.883Z,-5.00
2018-02-09T03:48:43.248Z,-5.00
2018-02-09T03:51:10.834Z,-5.00
2018-02-09T03:53:38.359Z,-4.90
2018-02-09T03:56:06.689Z,-5.00
2018-02-09T03:58:34.769Z,-5.00
2018-02-09T04:01:02.917Z,-4.90
2018-02-09T04:03:30.439Z,-4.90
2018-02-09T04:05:57.941Z,-4.90
2018-02-09T04:08:25.488Z,-4.90
2018-02-09T04:10:55.651Z,-4.90
2018-02-09T04:13:24.526Z,-4.90
2018-02-09T04:15:52.054Z,-4.80
2018-02-09T04:18:20.961Z,-4.80
2018-02-09T04:20:48.488Z,-4.90
2018-02-09T04:23:16.078Z,-4.80
2018-02-09T04:25:43.640Z,-4.80
2018-02-09T04:28:11.179Z,-4.70
2018-02-09T04:30:39.488Z,-4.70
2018-02-09T04:33:07.081Z,-4.80
2018-02-09T04:35:37.046Z,-4.80
2018-02-09T04:38:05.338Z,-4.80
2018-02-09T04:40:32.904Z,-4.80
2018-02-09T04:43:00.445Z,-4.80
2018-02-09T04:45:28.730Z,-4.70
2018-02-09T04:47:57.634Z,-4.70
2018-02-09T04:50:25.184Z,-4.70
2018-02-09T04:52:52.696Z,-4.80
2018-02-09T04:55:20.216Z,-4.70
2018-02-09T04:57:48.580Z,-4.70
2018-02-09T05:00:16.105Z,-4.80
2018-02-09T05:02:47.343Z,-4.80
2018-02-09T05:05:14.955Z,-4.70
2018-02-09T05:07:42.491Z,-4.60
2018-02-09T05:10:12.232Z,-4.70
2018-02-09T05:12:40.412Z,-4.70
2018-02-09T05:15:10.024Z,-4.60
2018-02-09T05:17:38.038Z,-4.60
2018-02-09T05:20:05.567Z,-4.60
2018-02-09T05:22:35.573Z,-4.60
2018-02-09T05:25:04.634Z,-4.50
2018-02-09T05:27:32.910Z,-4.50
2018-02-09T05:30:02.067Z,-4.50
2018-02-09T05:32:29.574Z,-4.50
2018-02-09T05:34:57.865Z,-4.40
2018-02-09T05:37:25.392Z,-4.50
2018-02-09T05:39:52.992Z,-4.40
2018-02-09T05:42:21.503Z,-4.50
2018-02-09T05:44:49.013Z,-4.40
2018-02-09T05:47:17.395Z,-4.30
2018-02-09T05:49:45.789Z,-4.30
2018-02-09T05:52:13.320Z,-4.40
2018-02-09T05:54:41.609Z,-4.30
2018-02-09T05:57:09.880Z,-4.30
2018-02-09T05:59:38.188Z,-4.30
2018-02-09T06:02:06.872Z,-4.30
2018-02-09T06:04:34.407Z,-4.30
2018-02-09T06:07:02.697Z,-4.30
2018-02-09T06:09:30.254Z,-4.40
2018-02-09T06:11:57.815Z,-4.30
2018-02-09T06:14:26.182Z,-4.30
2018-02-09T06:16:55.501Z,-4.30
2018-02-09T06:19:23.838Z,-4.30
2018-02-09T06:21:51.451Z,-4.40
2018-02-09T06:24:19.821Z,-4.40
2018-02-09T06:26:47.342Z,-4.40
2018-02-09T06:29:14.866Z,-4.40
2018-02-09T06:31:42.392Z,-4.40
2018-02-09T06:34:10.654Z,-4.50
2018-02-09T06:36:38.946Z,-4.50
2018-02-09T06:39:07.232Z,-4.50
2018-02-09T06:41:41.521Z,-4.40
2018-02-09T06:44:10.935Z,-4.40
2018-02-09T06:46:39.253Z,-4.40
2018-02-09T06:49:07.427Z,-4.40
2018-02-09T06:51:34.948Z,-4.40
2018-02-09T06:54:03.231Z,-4.30
2018-02-09T06:56:31.525Z,-4.30
2018-02-09T06:58:59.089Z,-4.40
2018-02-09T07:01:27.506Z,-4.30
2018-02-09T07:03:55.731Z,-4.30
2018-02-09T07:06:24.018Z,-4.20
2018-02-09T07:08:52.344Z,-4.20
2018-02-09T07:11:19.865Z,-4.20
2018-02-09T07:13:47.420Z,-4.20
2018-02-09T07:16:14.926Z,-4.20
2018-02-09T07:18:42.541Z,-4.10
2018-02-09T07:21:10.097Z,-4.10
2018-02-09T07:23:37.614Z,-4.10
2018-02-09T07:26:05.172Z,-4.10
2018-02-09T07:28:32.677Z,-4.00
2018-02-09T07:31:00.198Z,-4.00
2018-02-09T07:33:27.714Z,-3.90
2018-02-09T07:35:55.252Z,-3.90
2018-02-09T07:38:23.326Z,-3.90
2018-02-09T07:40:50.915Z,-3.90
2018-02-09T07:43:18.422Z,-3.80
2018-02-09T07:45:46.718Z,-3.70
2018-02-09T07:48:15.014Z,-3.70
2018-02-09T07:50:42.559Z,-3.70
2018-02-09T07:53:10.132Z,-3.60
2018-02-09T07:55:37.705Z,-3.60
2018-02-09T07:58:05.218Z,-3.50
2018-02-09T08:00:33.621Z,-3.40
2018-02-09T08:03:01.123Z,-3.40
2018-02-09T08:05:28.683Z,-3.30
2018-02-09T08:07:56.194Z,-3.30
2018-02-09T08:10:24.569Z,-3.20
2018-02-09T08:12:52.858Z,-3.10
2018-02-09T08:15:20.397Z,-3.10
2018-02-09T08:17:48.669Z,-3.00
2018-02-09T08:20:16.995Z,-3.00
2018-02-09T08:22:44.515Z,-3.00
2018-02-09T08:25:12.814Z,-2.90
2018-02-09T08:27:40.628Z,-2.90
2018-02-09T08:30:08.308Z,-2.90
2018-02-09T08:32:35.807Z,-2.80
2018-02-09T08:35:03.337Z,-2.80
2018-02-09T08:37:31.646Z,-2.60
2018-02-09T08:39:59.172Z,-2.70
2018-02-09T08:42:26.761Z,-1.80
2018-02-09T08:44:54.286Z,-1.00
2018-02-09T08:47:21.888Z,-0.90
2018-02-09T08:49:49.412Z,-0.10
2018-02-09T08:52:16.930Z,-0.50
2018-02-09T08:54:44.469Z,-1.30
2018-02-09T08:57:12.138Z,-1.30
2018-02-09T08:59:39.799Z,-1.30
2018-02-09T09:02:07.306Z,-1.40
2018-02-09T09:04:34.902Z,-1.30
2018-02-09T09:07:02.426Z,-1.40
2018-02-09T09:09:30.035Z,-1.20
2018-02-09T09:11:57.549Z,-1.30
2018-02-09T09:14:25.103Z,-1.00
2018-02-09T09:16:52.619Z,-0.80
2018-02-09T09:19:20.141Z,-0.60
2018-02-09T09:21:48.434Z,0.40
2018-02-09T09:24:16.007Z,0.40
2018-02-09T09:26:43.554Z,0.70
2018-02-09T09:29:11.091Z,0.80
2018-02-09T09:31:39.378Z,1.80
2018-02-09T09:34:07.679Z,1.60
2018-02-09T09:36:35.259Z,1.60
2018-02-09T09:39:02.810Z,1.90
2018-02-09T09:41:30.376Z,1.30
2018-02-09T09:43:57.928Z,1.20
2018-02-09T09:46:25.480Z,1.40
2018-02-09T09:48:53.047Z,0.70
2018-02-09T09:51:20.598Z,1.10
2018-02-09T09:53:48.879Z,1.10
2018-02-09T09:56:16.439Z,1.00
2018-02-09T09:58:43.968Z,1.30
2018-02-09T10:01:17.584Z,1.40
2018-02-09T10:03:45.880Z,1.20
2018-02-09T10:06:13.403Z,1.20
2018-02-09T10:08:41.726Z,0.80
2018-02-09T10:11:09.254Z,0.80
2018-02-09T10:13:37.617Z,0.70
2018-02-09T10:16:05.135Z,0.70
2018-02-09T10:18:32.657Z,0.70
2018-02-09T10:21:00.939Z,0.50
2018-02-09T10:23:29.334Z,0.70
2018-02-09T10:26:05.020Z,0.70
2018-02-09T10:28:32.553Z,0.70
2018-02-09T10:31:00.071Z,0.90
2018-02-09T10:33:28.357Z,0.50
2018-02-09T10:35:56.633Z,0.70
2018-02-09T10:38:24.943Z,0.70
2018-02-09T10:40:52.650Z,0.70
2018-02-09T10:43:20.154Z,1.20
2018-02-09T10:45:47.680Z,1.30
2018-02-09T10:48:16.690Z,1.40
2018-02-09T10:50:44.964Z,1.60
2018-02-09T10:53:13.267Z,1.30
2018-02-09T10:55:40.947Z,1.30
2018-02-09T10:58:08.475Z,1.50
2018-02-09T11:14:03.493Z,1.60
2018-02-09T11:16:31.165Z,1.50
2018-02-09T11:18:58.698Z,1.50
2018-02-09T11:21:26.973Z,1.60
2018-02-09T11:23:55.268Z,1.30
2018-02-09T11:26:22.882Z,1.20
2018-02-09T11:28:50.556Z,1.40
2018-02-09T11:31:18.381Z,1.30
2018-02-09T11:33:46.546Z,1.20
2018-02-09T11:36:14.562Z,1.00
2018-02-09T11:38:42.897Z,1.10
2018-02-09T11:41:11.275Z,1.30
2018-02-09T11:43:39.636Z,1.20
2018-02-09T11:46:08.145Z,1.50
2018-02-09T11:48:36.917Z,1.30
2018-02-09T11:51:05.809Z,1.30
2018-02-09T11:53:33.793Z,1.20
2018-02-09T11:56:03.407Z,1.00
2018-02-09T11:58:32.860Z,1.10
2018-02-09T12:01:01.810Z,1.10
2018-02-09T12:03:31.201Z,1.20
2018-02-09T12:05:59.786Z,1.20
2018-02-09T12:08:28.398Z,1.40
2018-02-09T12:10:56.280Z,1.30
2018-02-09T12:13:25.463Z,1.40
2018-02-09T12:15:53.412Z,1.40
2018-02-09T12:18:20.959Z,1.50
2018-02-09T12:20:48.936Z,1.40
2018-02-09T12:23:16.802Z,1.50
2018-02-09T12:25:44.773Z,1.60
2018-02-09T12:28:12.430Z,1.40
2018-02-09T12:30:39.988Z,1.40
2018-02-09T12:33:07.517Z,1.30
2018-02-09T12:35:35.832Z,1.00
2018-02-09T12:38:03.434Z,1.00
2018-02-09T12:40:31.043Z,1.10
2018-02-09T12:42:58.562Z,1.20
2018-02-09T12:45:26.096Z,1.20
2018-02-09T12:47:53.765Z,1.10
2018-02-09T12:50:21.380Z,1.10
2018-02-09T12:52:48.962Z,1.10
2018-02-09T12:55:16.470Z,1.10
2018-02-09T12:57:44.070Z,1.10
2018-02-09T13:00:11.630Z,1.20
2018-02-09T13:02:39.170Z,1.20
2018-02-09T13:05:07.476Z,1.10
2018-02-09T13:07:35.022Z,1.10
2018-02-09T13:10:02.606Z,1.10
2018-02-09T13:12:42.070Z,1.20
2018-02-09T13:15:09.593Z,1.10
2018-02-09T13:17:37.139Z,1.00
2018-02-09T13:20:05.557Z,1.10
2018-02-09T13:22:44.989Z,1.10
2018-02-09T13:25:12.895Z,1.10
2018-02-09T13:27:40.411Z,1.10
2018-02-09T13:30:07.982Z,1.10
2018-02-09T13:32:47.635Z,1.20
2018-02-09T13:35:15.174Z,1.20
2018-02-09T13:37:42.731Z,1.20
2018-02-09T13:40:10.278Z,1.20
2018-02-09T13:42:37.789Z,1.20
2018-02-09T13:45:05.299Z,1.10
2018-02-09T13:47:32.864Z,1.10
2018-02-09T13:50:00.923Z,1.10
2018-02-09T13:52:28.434Z,1.10
2018-02-09T13:54:55.952Z,1.10
2018-02-09T13:57:23.509Z,1.20
2018-02-09T13:59:51.039Z,1.10
2018-02-09T14:02:19.350Z,1.20
2018-02-09T14:04:46.867Z,1.20
2018-02-09T14:07:15.101Z,1.30
2018-02-09T14:09:42.692Z,1.30
2018-02-09T14:12:10.184Z,1.20
2018-02-09T14:14:38.470Z,1.10
2018-02-09T14:17:07.011Z,1.10
2018-02-09T14:19:35.014Z,1.10
2018-02-09T14:22:03.299Z,1.10
2018-02-09T14:24:31.773Z,1.10
2018-02-09T14:26:59.302Z,1.10
2018-02-09T14:29:26.872Z,1.00
2018-02-09T14:31:54.593Z,1.10
2018-02-09T14:34:22.106Z,1.10
2018-02-09T14:36:49.785Z,1.00
2018-02-09T14:39:18.078Z,1.00
2018-02-09T14:41:45.678Z,1.00
2018-02-09T14:44:13.205Z,1.10
2018-02-09T14:46:40.735Z,1.00
2018-02-09T14:49:09.038Z,1.00
2018-02-09T14:51:36.610Z,0.90
2018-02-09T14:54:04.680Z,0.90
2018-02-09T14:56:34.525Z,0.90
2018-02-09T14:59:02.077Z,0.90
2018-02-09T15:01:29.598Z,0.90
2018-02-09T15:03:57.914Z,0.90
2018-02-09T15:06:25.530Z,0.90
2018-02-09T15:08:53.815Z,0.80
2018-02-09T15:11:22.236Z,0.80
2018-02-09T15:13:49.920Z,0.70
2018-02-09T15:16:17.556Z,0.70
2018-02-09T15:18:45.087Z,0.70
2018-02-09T15:21:12.665Z,0.70
2018-02-09T15:23:40.851Z,0.60
2018-02-09T15:26:09.232Z,0.60
2018-02-09T15:28:37.049Z,0.60
2018-02-09T15:31:04.719Z,0.60
2018-02-09T15:33:32.320Z,0.60
2018-02-09T15:35:59.980Z,0.60
2018-02-09T15:38:27.502Z,0.50
2018-02-09T15:40:55.834Z,0.40
2018-02-09T15:43:23.366Z,0.30
2018-02-09T15:45:51.024Z,0.30
2018-02-09T15:48:18.547Z,0.30
2018-02-09T15:50:46.055Z,0.30
2018-02-09T15:53:13.583Z,0.30
2018-02-09T15:55:41.997Z,0.20
2018-02-09T15:58:10.357Z,0.10
2018-02-09T16:00:37.877Z,0.10
2018-02-09T16:03:05.428Z,0.00
2018-02-09T16:05:32.960Z,0.00
2018-02-09T16:08:00.502Z,0.10
2018-02-09T16:10:28.009Z,0.00
2018-02-09T16:12:55.524Z,0.00
2018-02-09T16:15:23.066Z,-0.10
2018-02-09T16:17:51.340Z,-0.30
2018-02-09T16:20:19.642Z,-0.30
2018-02-09T16:22:47.166Z,-0.30
2018-02-09T16:25:14.770Z,-0.30
2018-02-09T16:27:42.301Z,-0.40
2018-02-09T16:30:16.647Z,-0.40
2018-02-09T16:32:44.569Z,-0.40
2018-02-09T16:35:12.883Z,-0.50
2018-02-09T16:37:40.413Z,-0.50
2018-02-09T16:40:09.044Z,-0.50
2018-02-09T16:42:37.259Z,-0.50
2018-02-09T16:45:04.841Z,-0.50
2018-02-09T16:47:33.681Z,-0.50
2018-02-09T16:50:01.322Z,-0.50
2018-02-09T16:52:28.844Z,-0.60
2018-02-09T16:54:56.440Z,-0.60
2018-02-09T16:57:23.957Z,-0.70
2018-02-09T16:59:51.578Z,-0.80
2018-02-09T17:02:19.156Z,-0.80
2018-02-09T17:04:47.092Z,-0.80
2018-02-09T17:07:14.648Z,-0.90
2018-02-09T17:09:42.232Z,-0.90
2018-02-09T17:12:09.893Z,-0.90
2018-02-09T17:14:37.495Z,-1.00
2018-02-09T17:17:05.050Z,-1.00
2018-02-09T17:19:33.002Z,-1.10
2018-02-09T17:22:01.120Z,-1.20
2018-02-09T17:24:29.748Z,-1.60
2018-02-09T17:26:57.475Z,-1.60
2018-02-09T17:29:25.800Z,-1.80
2018-02-09T17:31:53.607Z,-1.80
2018-02-09T17:34:21.316Z,-1.80
2018-02-09T17:36:50.074Z,-1.60
2018-02-09T17:39:18.691Z,-1.50
2018-02-09T17:41:46.760Z,-1.50
2018-02-09T17:44:14.427Z,-1.60
2018-02-09T17:46:42.604Z,-1.70
2018-02-09T17:49:10.264Z,-1.60
2018-02-09T17:51:39.121Z,-1.70
2018-02-09T17:54:06.722Z,-1.70
2018-02-09T17:56:34.263Z,-1.70
2018-02-09T17:59:01.774Z,-1.80
2018-02-09T18:01:29.386Z,-1.80
2018-02-09T18:03:56.914Z,-1.70
2018-02-09T18:06:24.441Z,-1.80
2018-02-09T18:08:51.978Z,-1.80
2018-02-09T18:11:19.544Z,-1.70
2018-02-09T18:13:47.073Z,-1.70
2018-02-09T18:16:15.348Z,-1.70
2018-02-09T18:18:43.777Z,-1.80
2018-02-09T18:21:11.286Z,-1.80
2018-02-09T18:23:39.608Z,-2.10
2018-02-09T18:26:07.138Z,-2.20
2018-02-09T18:28:34.703Z,-2.20
2018-02-09T18:31:02.234Z,-2.20
2018-02-09T18:33:30.522Z,-1.90
2018-02-09T18:35:58.805Z,-1.90
2018-02-09T18:38:27.082Z,-2.00
2018-02-09T18:40:55.366Z,-2.10
2018-02-09T18:43:22.923Z,-2.10
2018-02-09T18:45:51.193Z,-2.20
2018-02-09T18:48:19.481Z,-2.20
2018-02-09T18:50:47.057Z,-2.30
2018-02-09T18:53:14.623Z,-2.30
2018-02-09T18:55:42.811Z,-2.20
2018-02-09T18:58:10.366Z,-2.30
2018-02-09T19:00:37.884Z,-2.40
2018-02-09T19:03:06.150Z,-2.60
2018-02-09T19:05:33.659Z,-2.60
2018-02-09T19:08:01.174Z,-2.70
2018-02-09T19:10:30.501Z,-2.80
2018-02-09T19:12:58.036Z,-2.80
2018-02-09T19:15:26.319Z,-2.90
2018-02-09T19:17:54.610Z,-2.90
2018-02-09T19:20:22.122Z,-2.90
2018-02-09T19:22:49.639Z,-3.00
2018-02-09T19:25:17.156Z,-3.00
2018-02-09T19:27:47.106Z,-3.00
2018-02-09T19:30:14.681Z,-3.00
2018-02-09T19:32:42.235Z,-3.10
2018-02-09T19:35:10.475Z,-3.10
2018-02-09T19:37:38.076Z,-3.10
2018-02-09T19:40:05.573Z,-3.20
2018-02-09T19:42:33.185Z,-3.20
2018-02-09T19:45:00.751Z,-3.20
2018-02-09T19:47:28.273Z,-3.20
2018-02-09T19:49:55.798Z,-3.20
2018-02-09T19:52:23.324Z,-3.20
2018-02-09T19:54:50.887Z,-3.20
2018-02-09T19:57:19.190Z,-3.10
2018-02-09T19:59:46.740Z,-3.10
2018-02-09T20:02:14.250Z,-3.00
2018-02-09T20:04:41.844Z,-3.00
2018-02-09T20:07:09.359Z,-3.00
2018-02-09T20:09:36.979Z,-3.00
2018-02-09T20:12:04.523Z,-2.90
2018-02-09T20:14:32.088Z,-2.80
2018-02-09T20:16:59.593Z,-3.00
2018-02-09T20:19:27.095Z,-3.10
2018-02-09T20:21:55.370Z,-3.20
2018-02-09T20:24:23.658Z,-3.20
2018-02-09T20:26:51.927Z,-3.30
2018-02-09T20:29:20.193Z,-3.30
2018-02-09T20:31:48.474Z,-3.40
2018-02-09T20:34:16.764Z,-3.40
2018-02-09T20:36:45.058Z,-3.40
2018-02-09T20:39:12.629Z,-3.50
2018-02-09T20:41:40.286Z,-3.50
2018-02-09T20:44:07.832Z,-3.50
2018-02-09T20:46:36.287Z,-3.60
2018-02-09T20:49:04.455Z,-3.60
2018-02-09T20:51:32.044Z,-3.70
2018-02-09T20:54:00.327Z,-3.70
2018-02-09T20:56:27.845Z,-3.70
2018-02-09T20:58:55.454Z,-3.70
2018-02-09T21:01:23.010Z,-3.70
2018-02-09T21:03:50.582Z,-3.70
2018-02-09T21:06:18.103Z,-3.80
2018-02-09T21:08:45.791Z,-3.80
2018-02-09T21:11:14.596Z,-3.80
2018-02-09T21:13:43.082Z,-3.80
2018-02-09T21:16:10.646Z,-3.90
2018-02-09T21:18:38.203Z,-3.90
2018-02-09T21:21:05.851Z,-3.90
2018-02-09T21:23:33.718Z,-3.90
2018-02-09T21:26:01.328Z,-4.00
2018-02-09T21:28:29.117Z,-4.00
2018-02-09T21:30:57.145Z,-4.00
2018-02-09T21:33:24.694Z,-4.00
2018-02-09T21:35:52.333Z,-4.00
2018-02-09T21:38:20.619Z,-4.00
2018-02-09T21:40:48.131Z,-4.00
2018-02-09T21:43:15.915Z,-4.00
2018-02-09T21:45:44.422Z,-4.10
2018-02-09T21:48:12.143Z,-4.10
2018-02-09T21:50:40.014Z,-4.10
2018-02-09T21:53:07.734Z,-4.10
2018-02-09T21:55:35.616Z,-4.00
2018-02-09T21:58:03.394Z,-4.10
2018-02-09T22:00:30.943Z,-4.10
2018-02-09T22:02:58.662Z,-4.10
2018-02-09T22:05:27.459Z,-4.10
2018-02-09T22:07:56.208Z,-4.10
2018-02-09T22:10:23.798Z,-4.10
2018-02-09T22:12:52.488Z,-4.20
2018-02-09T22:15:21.221Z,-4.30
2018-02-09T22:17:49.275Z,-4.30
2018-02-09T22:20:17.450Z,-4.30
2018-02-09T22:22:45.310Z,-4.20
2018-02-09T22:25:12.921Z,-4.30
2018-02-09T22:27:40.535Z,-4.30
2018-02-09T22:30:08.408Z,-4.30
2018-02-09T22:32:36.138Z,-4.30
2018-02-09T22:35:04.562Z,-4.20
2018-02-09T22:37:33.652Z,-4.20
2018-02-09T22:40:02.955Z,-4.20
2018-02-09T22:42:31.721Z,-4.30
2018-02-09T22:44:59.733Z,-4.30
2018-02-09T22:47:27.785Z,-4.30
2018-02-09T22:49:55.529Z,-4.30
2018-02-09T22:52:24.540Z,-4.40
2018-02-09T22:54:52.512Z,-4.40
2018-02-09T22:57:20.688Z,-4.50
2018-02-09T22:59:48.863Z,-4.50
2018-02-09T23:02:17.414Z,-4.50
2018-02-09T23:04:46.035Z,-4.50
2018-02-09T23:07:13.915Z,-4.60
2018-02-09T23:09:41.467Z,-4.50
2018-02-09T23:12:08.966Z,-4.60
2018-02-09T23:14:36.559Z,-4.60
2018-02-09T23:17:04.837Z,-4.60
2018-02-09T23:19:33.171Z,-4.60
2018-02-09T23:22:00.786Z,-4.60
2018-02-09T23:24:28.588Z,-4.60
2018-02-09T23:26:56.650Z,-4.70
2018-02-09T23:29:24.987Z,-4.70
2018-02-09T23:31:53.333Z,-4.60
2018-02-09T23:34:20.895Z,-4.70
2018-02-09T23:36:48.469Z,-4.70
2018-02-09T23:39:16.997Z,-4.70
2018-02-09T23:41:45.791Z,-4.70
2018-02-09T23:44:13.453Z,-4.70
2018-02-09T23:46:41.105Z,-4.70
2018-02-09T23:49:08.676Z,-4.70
2018-02-09T23:51:36.509Z,-4.80
2018-02-09T23:54:04.779Z,-4.90
2018-02-09T23:56:33.080Z,-4.90
2018-02-09T23:59:00.760Z,-5.00
